createdAt,value
2018-08-22T00:03:01.072Z,99.90
2018-08-22T00:05:28.688Z,99.90
2018-08-22T00:07:56.289Z,99.90
2018-08-22T00:10:23.903Z,99.90
2018-08-22T00:12:51.576Z,99.90
2018-08-22T00:15:19.328Z,99.90
2018-08-22T00:17:46.831Z,99.90
2018-08-22T00:22:41.987Z,99.90
2018-08-22T00:25:09.551Z,99.90
2018-08-22T00:27:37.200Z,99.90
2018-08-22T00:30:05.316Z,99.90
2018-08-22T00:32:32.961Z,99.90
2018-08-22T00:35:00.617Z,99.90
2018-08-22T00:37:28.266Z,99.90
2018-08-22T00:39:55.950Z,99.90
2018-08-22T00:42:23.570Z,99.90
2018-08-22T00:44:51.213Z,99.90
2018-08-22T00:47:18.840Z,99.90
2018-08-22T00:49:46.510Z,99.90
2018-08-22T00:52:14.134Z,99.90
2018-08-22T00:54:41.836Z,99.90
2018-08-22T00:57:09.483Z,99.90
2018-08-22T00:59:37.273Z,99.90
2018-08-22T01:02:04.887Z,99.90
2018-08-22T01:04:32.566Z,99.90
2018-08-22T01:07:00.267Z,99.90
2018-08-22T01:09:27.947Z,99.90
2018-08-22T01:11:55.585Z,99.90
2018-08-22T01:14:23.303Z,99.90
2018-08-22T01:16:50.931Z,99.90
2018-08-22T01:19:18.552Z,99.90
2018-08-22T01:21:46.270Z,99.90
2018-08-22T01:24:13.908Z,99.90
2018-08-22T01:26:41.531Z,99.90
2018-08-22T01:29:09.112Z,99.90
2018-08-22T01:34:04.173Z,99.90
2018-08-22T01:36:31.833Z,99.90
2018-08-22T01:38:59.485Z,99.90
2018-08-22T01:41:27.126Z,99.90
2018-08-22T01:43:54.771Z,99.90
2018-08-22T01:46:22.335Z,99.90
2018-08-22T01:48:50.124Z,99.90
2018-08-22T01:51:17.702Z,99.90
2018-08-22T01:56:12.832Z,99.90
2018-08-22T01:58:40.457Z,99.90
2018-08-22T02:01:08.121Z,99.90
2018-08-22T02:03:35.743Z,99.90
2018-08-22T02:06:03.373Z,99.90
2018-08-22T02:08:30.977Z,99.90
2018-08-22T02:10:58.612Z,99.90
2018-08-22T02:13:26.196Z,99.90
2018-08-22T02:15:53.842Z,99.90
2018-08-22T02:18:21.486Z,99.90
2018-08-22T02:20:49.202Z,99.90
2018-08-22T02:23:16.806Z,99.90
2018-08-22T02:25:44.461Z,99.90
2018-08-22T02:28:12.103Z,99.90
2018-08-22T02:30:39.719Z,99.90
2018-08-22T02:33:07.412Z,99.90
2018-08-22T02:35:34.987Z,99.90
2018-08-22T02:38:02.660Z,99.90
2018-08-22T02:40:30.267Z,99.90
2018-08-22T02:45:25.379Z,99.90
2018-08-22T02:47:53.054Z,99.90
2018-08-22T02:50:20.668Z,99.90
2018-08-22T02:52:48.333Z,99.90
2018-08-22T02:55:15.952Z,99.90
2018-08-22T02:57:43.572Z,99.90
2018-08-22T03:00:12.012Z,99.90
2018-08-22T03:02:39.695Z,99.90
2018-08-22T03:05:07.347Z,99.90
2018-08-22T03:07:34.990Z,99.90
2018-08-22T03:10:02.711Z,99.90
2018-08-22T03:12:30.316Z,99.90
2018-08-22T03:14:57.971Z,99.90
2018-08-22T03:17:25.544Z,99.90
2018-08-22T03:19:53.165Z,99.90
2018-08-22T03:22:20.766Z,99.90
2018-08-22T03:24:48.428Z,99.90
2018-08-22T03:27:16.032Z,99.90
2018-08-22T03:29:43.662Z,99.90
2018-08-22T03:34:38.827Z,99.90
2018-08-22T03:37:06.430Z,99.90
2018-08-22T03:39:34.112Z,99.90
2018-08-22T03:42:01.744Z,99.90
2018-08-22T03:44:29.392Z,99.90
2018-08-22T03:46:57.054Z,99.90
2018-08-22T03:49:24.683Z,99.90
2018-08-22T03:51:52.319Z,99.90
2018-08-22T03:54:19.918Z,99.90
2018-08-22T03:56:47.522Z,99.90
2018-08-22T03:59:15.137Z,99.90
2018-08-22T04:01:42.787Z,99.90
2018-08-22T04:04:10.406Z,99.90
2018-08-22T04:06:38.077Z,99.90
2018-08-22T04:09:06.393Z,99.90
2018-08-22T04:11:34.088Z,99.90
2018-08-22T04:14:01.676Z,99.90
2018-08-22T04:16:29.382Z,99.90
2018-08-22T04:18:56.989Z,99.90
2018-08-22T04:21:24.627Z,99.90
2018-08-22T04:23:52.246Z,99.90
2018-08-22T04:28:47.353Z,99.90
2018-08-22T04:31:14.964Z,99.90
2018-08-22T04:33:42.601Z,99.90
2018-08-22T04:36:10.225Z,99.90
2018-08-22T04:38:37.870Z,99.90
2018-08-22T04:41:05.603Z,99.90
2018-08-22T04:43:33.230Z,99.90
2018-08-22T04:46:00.927Z,99.90
2018-08-22T04:48:28.509Z,99.90
2018-08-22T04:50:56.133Z,99.90
2018-08-22T04:53:23.804Z,99.90
2018-08-22T04:55:51.424Z,99.90
2018-08-22T04:58:19.129Z,99.90
2018-08-22T05:03:14.278Z,99.90
2018-08-22T05:05:41.923Z,99.90
2018-08-22T05:08:09.545Z,99.90
2018-08-22T05:10:37.207Z,99.90
2018-08-22T05:13:04.845Z,99.90
2018-08-22T05:15:32.478Z,99.90
2018-08-22T05:20:27.734Z,99.90
2018-08-22T05:22:55.383Z,99.90
2018-08-22T05:27:50.549Z,99.90
2018-08-22T05:30:18.322Z,99.90
2018-08-22T05:32:45.797Z,99.90
2018-08-22T05:35:13.476Z,99.90
2018-08-22T05:37:41.203Z,99.90
2018-08-22T05:40:08.838Z,99.90
2018-08-22T05:45:04.409Z,99.90
2018-08-22T05:47:32.024Z,99.90
2018-08-22T05:49:59.728Z,99.90
2018-08-22T05:52:27.372Z,99.90
2018-08-22T05:54:55.060Z,99.90
2018-08-22T05:59:50.333Z,99.90
2018-08-22T06:02:17.994Z,99.90
2018-08-22T06:04:45.604Z,99.90
2018-08-22T06:07:13.209Z,99.90
2018-08-22T06:09:40.854Z,99.90
2018-08-22T06:12:08.488Z,99.90
2018-08-22T06:14:36.155Z,99.90
2018-08-22T06:17:03.840Z,99.90
2018-08-22T06:19:31.484Z,99.90
2018-08-22T06:21:59.185Z,99.90
2018-08-22T06:24:26.834Z,99.90
2018-08-22T06:26:54.483Z,99.90
2018-08-22T06:29:22.193Z,99.80
2018-08-22T06:31:49.914Z,99.00
2018-08-22T06:34:17.555Z,98.30
2018-08-22T06:36:45.235Z,97.30
2018-08-22T06:41:40.896Z,96.20
2018-08-22T06:44:08.650Z,95.00
2018-08-22T06:46:36.304Z,94.80
2018-08-22T06:49:04.058Z,94.00
2018-08-22T06:51:31.670Z,93.90
2018-08-22T06:56:26.816Z,92.80
2018-08-22T06:58:54.459Z,93.00
2018-08-22T07:03:49.624Z,91.60
2018-08-22T07:08:44.759Z,90.50
2018-08-22T07:11:12.416Z,90.50
2018-08-22T07:13:40.080Z,90.00
2018-08-22T07:16:07.721Z,90.90
2018-08-22T07:18:35.316Z,86.30
2018-08-22T07:21:02.988Z,86.20
2018-08-22T07:25:58.180Z,82.00
2018-08-22T07:28:25.829Z,80.40
2018-08-22T07:30:53.519Z,77.90
2018-08-22T07:33:21.181Z,76.40
2018-08-22T07:35:48.974Z,73.90
2018-08-22T07:40:44.019Z,72.10
2018-08-22T07:45:39.185Z,73.00
2018-08-22T07:50:34.505Z,73.00
2018-08-22T07:53:02.130Z,72.30
2018-08-22T07:55:30.090Z,72.00
2018-08-22T07:57:57.676Z,73.20
2018-08-22T08:00:25.331Z,70.20
2018-08-22T08:02:53.015Z,69.60
2018-08-22T08:05:20.749Z,69.10
2018-08-22T08:07:48.395Z,68.00
2018-08-22T08:10:21.535Z,68.80
2018-08-22T08:12:49.412Z,67.70
2018-08-22T08:15:17.038Z,65.90
2018-08-22T08:17:44.750Z,65.80
2018-08-22T08:20:12.391Z,65.70
2018-08-22T08:22:40.030Z,65.50
2018-08-22T08:25:07.674Z,65.60
2018-08-22T08:30:03.636Z,65.60
2018-08-22T08:32:31.289Z,67.20
2018-08-22T08:34:58.935Z,66.30
2018-08-22T08:37:26.600Z,65.00
2018-08-22T08:39:54.194Z,63.40
2018-08-22T08:42:21.849Z,63.70
2018-08-22T08:44:50.350Z,63.40
2018-08-22T08:47:18.015Z,62.30
2018-08-22T08:49:45.659Z,59.00
2018-08-22T08:52:13.318Z,58.40
2018-08-22T08:54:40.964Z,59.30
2018-08-22T08:57:08.619Z,58.30
2018-08-22T08:59:36.210Z,58.20
2018-08-22T09:02:03.862Z,56.90
2018-08-22T09:04:31.516Z,54.40
2018-08-22T09:06:59.150Z,53.00
2018-08-22T09:09:26.763Z,51.50
2018-08-22T09:11:58.361Z,51.10
2018-08-22T09:14:26.087Z,50.10
2018-08-22T09:16:53.939Z,50.40
2018-08-22T09:21:49.351Z,50.60
2018-08-22T09:24:16.994Z,51.40
2018-08-22T09:29:12.131Z,50.60
2018-08-22T09:31:39.775Z,50.50
2018-08-22T09:34:07.589Z,50.60
2018-08-22T09:39:03.939Z,49.10
2018-08-22T09:41:31.581Z,49.90
2018-08-22T09:46:26.728Z,49.70
2018-08-22T09:48:54.349Z,50.50
2018-08-22T09:51:22.041Z,51.60
2018-08-22T09:53:49.640Z,51.60
2018-08-22T09:56:17.320Z,54.70
2018-08-22T09:58:44.975Z,59.80
2018-08-22T10:01:18.325Z,60.90
2018-08-22T10:03:56.604Z,62.30
2018-08-22T10:06:45.386Z,63.00
2018-08-22T10:09:14.856Z,63.70
2018-08-22T10:11:42.671Z,65.30
2018-08-22T10:16:37.927Z,65.80
2018-08-22T10:19:05.609Z,66.90
2018-08-22T10:21:33.274Z,67.80
2018-08-22T10:24:00.976Z,69.10
2018-08-22T10:26:28.614Z,72.80
2018-08-22T10:28:56.374Z,70.30
2018-08-22T10:33:52.229Z,71.80
2018-08-22T10:36:19.874Z,73.70
2018-08-22T10:38:47.525Z,71.10
2018-08-22T10:41:15.167Z,71.70
2018-08-22T10:43:42.861Z,72.80
2018-08-22T10:46:10.431Z,69.00
2018-08-22T10:48:38.070Z,71.40
2018-08-22T10:51:06.091Z,67.60
2018-08-22T10:53:33.767Z,64.20
2018-08-22T10:56:02.156Z,60.10
2018-08-22T10:58:29.825Z,61.60
2018-08-22T11:00:57.507Z,60.00
2018-08-22T11:05:52.626Z,58.00
2018-08-22T11:08:20.261Z,58.10
2018-08-22T11:10:47.895Z,55.40
2018-08-22T11:13:15.535Z,52.90
2018-08-22T11:15:43.241Z,49.00
2018-08-22T11:18:10.875Z,48.70
2018-08-22T11:20:45.587Z,43.20
2018-08-22T11:23:25.480Z,41.30
2018-08-22T11:26:04.597Z,40.20
2018-08-22T11:28:44.451Z,40.60
2018-08-22T11:31:23.434Z,39.10
2018-08-22T11:34:02.392Z,39.40
2018-08-22T11:36:29.429Z,40.90
2018-08-22T11:38:57.077Z,40.20
2018-08-22T11:41:24.756Z,39.20
2018-08-22T11:43:52.387Z,40.10
2018-08-22T11:46:20.191Z,38.50
2018-08-22T11:48:47.872Z,38.00
2018-08-22T11:51:15.526Z,38.50
2018-08-22T11:53:43.150Z,38.70
2018-08-22T11:56:10.897Z,40.00
2018-08-22T11:58:38.562Z,39.80
2018-08-22T12:03:33.729Z,44.10
2018-08-22T12:06:01.531Z,43.70
2018-08-22T12:08:29.177Z,45.10
2018-08-22T12:10:57.732Z,47.00
2018-08-22T12:13:25.400Z,47.00
2018-08-22T12:15:52.975Z,44.40
2018-08-22T12:18:20.660Z,42.90
2018-08-22T12:20:48.287Z,42.80
2018-08-22T12:23:16.057Z,39.70
2018-08-22T12:25:43.607Z,39.00
2018-08-22T12:28:11.257Z,41.10
2018-08-22T12:30:38.874Z,42.40
2018-08-22T12:33:06.582Z,46.10
2018-08-22T12:35:34.223Z,45.80
2018-08-22T12:38:01.881Z,48.00
2018-08-22T12:40:29.523Z,50.50
2018-08-22T12:42:57.185Z,47.90
2018-08-22T12:50:19.877Z,52.30
2018-08-22T12:52:47.453Z,49.20
2018-08-22T12:57:42.616Z,46.30
2018-08-22T13:00:10.315Z,46.20
2018-08-22T13:05:06.573Z,51.00
2018-08-22T13:10:01.723Z,46.20
2018-08-22T13:14:57.502Z,45.10
2018-08-22T13:17:25.147Z,51.60
2018-08-22T13:24:47.911Z,45.70
2018-08-22T13:27:15.492Z,43.90
2018-08-22T13:29:43.174Z,42.30
2018-08-22T13:32:10.827Z,40.30
2018-08-22T13:37:06.036Z,38.20
2018-08-22T13:39:33.646Z,39.30
2018-08-22T13:42:01.340Z,35.80
2018-08-22T13:44:28.961Z,35.00
2018-08-22T13:46:56.660Z,34.20
2018-08-22T13:49:24.267Z,35.40
2018-08-22T13:51:51.947Z,34.50
2018-08-22T13:56:56.541Z,34.10
2018-08-22T13:59:24.237Z,33.60
2018-08-22T14:01:51.912Z,32.50
2018-08-22T14:04:19.529Z,32.50
2018-08-22T14:06:47.176Z,32.70
2018-08-22T14:09:14.818Z,35.40
2018-08-22T14:11:42.478Z,36.40
2018-08-22T14:14:10.133Z,39.30
2018-08-22T14:16:37.858Z,41.20
2018-08-22T14:19:05.801Z,44.90
2018-08-22T14:24:01.010Z,48.80
2018-08-22T14:26:28.636Z,47.50
2018-08-22T14:28:56.344Z,52.40
2018-08-22T14:31:23.986Z,50.30
2018-08-22T14:33:51.702Z,53.30
2018-08-22T14:38:46.926Z,53.20
2018-08-22T14:41:14.632Z,55.10
2018-08-22T14:43:42.402Z,51.20
2018-08-22T14:46:10.034Z,49.80
2018-08-22T14:48:37.757Z,49.40
2018-08-22T14:51:05.508Z,50.00
2018-08-22T14:53:34.019Z,49.50
2018-08-22T14:56:01.652Z,49.70
2018-08-22T15:00:56.839Z,50.00
2018-08-22T15:03:25.030Z,50.00
2018-08-22T15:05:52.533Z,51.40
2018-08-22T15:08:20.198Z,51.40
2018-08-22T15:10:48.235Z,50.80
2018-08-22T15:15:43.824Z,52.30
2018-08-22T15:18:11.594Z,51.10
2018-08-22T15:23:06.936Z,50.10
2018-08-22T15:25:34.996Z,50.20
2018-08-22T15:28:02.647Z,48.70
2018-08-22T15:30:30.331Z,48.40
2018-08-22T15:32:57.976Z,48.20
2018-08-22T15:35:25.651Z,47.60
2018-08-22T15:37:53.266Z,47.70
2018-08-22T15:42:48.426Z,46.20
2018-08-22T15:45:16.056Z,43.90
2018-08-22T15:47:43.683Z,43.40
2018-08-22T15:52:38.875Z,42.50
2018-08-22T15:55:11.613Z,41.60
2018-08-22T15:57:51.916Z,42.20
2018-08-22T16:00:33.592Z,40.50
2018-08-22T16:03:02.388Z,41.60
2018-08-22T16:08:05.536Z,39.20
2018-08-22T16:10:33.204Z,39.40
2018-08-22T16:13:01.264Z,40.90
2018-08-22T16:15:33.552Z,43.60
2018-08-22T16:18:08.666Z,45.60
2018-08-22T16:20:42.287Z,46.90
2018-08-22T16:23:09.927Z,47.10
2018-08-22T16:25:44.068Z,48.20
2018-08-22T16:28:11.893Z,48.60
2018-08-22T16:30:39.560Z,51.10
2018-08-22T16:33:07.233Z,51.90
2018-08-22T16:38:04.886Z,54.80
2018-08-22T16:40:34.148Z,54.60
2018-08-22T16:43:02.062Z,54.50
2018-08-22T16:45:30.118Z,54.90
2018-08-22T16:47:57.806Z,55.60
2018-08-22T16:52:53.626Z,57.20
2018-08-22T16:55:23.383Z,56.00
2018-08-22T17:00:29.533Z,57.00
2018-08-22T17:02:57.648Z,57.50
2018-08-22T17:05:25.288Z,57.60
2018-08-22T17:07:53.153Z,57.60
2018-08-22T17:10:20.742Z,58.20
2018-08-22T17:12:48.852Z,57.90
2018-08-22T17:15:16.479Z,58.20
2018-08-22T17:20:11.680Z,58.80
2018-08-22T17:22:39.356Z,59.40
2018-08-22T17:25:07.132Z,59.90
2018-08-22T17:27:55.152Z,63.50
2018-08-22T17:30:30.182Z,63.20
2018-08-22T17:32:57.858Z,63.60
2018-08-22T17:37:58.556Z,66.60
2018-08-22T17:40:26.498Z,67.00
2018-08-22T17:42:54.610Z,67.30
2018-08-22T17:45:35.116Z,69.10
2018-08-22T17:48:03.698Z,70.40
2018-08-22T17:50:31.465Z,71.90
2018-08-22T17:52:59.452Z,72.90
2018-08-22T18:00:22.469Z,76.00
2018-08-22T18:02:50.108Z,76.70
2018-08-22T18:05:17.799Z,77.80
2018-08-22T18:07:45.478Z,78.80
2018-08-22T18:10:13.117Z,79.60
2018-08-22T18:12:40.780Z,80.80
2018-08-22T18:15:08.477Z,81.40
2018-08-22T18:17:36.178Z,82.50
2018-08-22T18:20:04.062Z,83.10
2018-08-22T18:22:34.297Z,84.10
2018-08-22T18:25:01.988Z,84.90
2018-08-22T18:29:57.252Z,85.80
2018-08-22T18:32:24.911Z,86.50
2018-08-22T18:35:10.078Z,87.30
2018-08-22T18:37:37.993Z,88.00
2018-08-22T18:53:03.352Z,88.80
2018-08-22T18:55:32.387Z,91.60
2018-08-22T18:58:04.323Z,92.20
2018-08-22T19:00:36.113Z,92.50
2018-08-22T19:05:32.444Z,93.50
2018-08-22T19:10:33.034Z,93.60
2018-08-22T19:13:31.568Z,93.60
2018-08-22T19:16:01.444Z,93.80
2018-08-22T19:18:29.129Z,94.10
2018-08-22T19:23:25.627Z,94.50
2018-08-22T19:25:53.871Z,94.70
2018-08-22T19:28:21.604Z,95.20
2018-08-22T19:30:49.244Z,95.30
2018-08-22T19:33:20.144Z,95.60
2018-08-22T19:35:48.053Z,95.60
2018-08-22T19:38:17.383Z,95.70
2018-08-22T19:40:45.140Z,95.70
2018-08-22T19:43:13.015Z,95.80
2018-08-22T19:45:41.530Z,96.00
2018-08-22T19:48:09.264Z,96.10
2018-08-22T19:50:36.954Z,96.60
2018-08-22T19:53:05.670Z,96.80
2018-08-22T19:55:34.799Z,97.10
2018-08-22T19:58:02.575Z,97.60
2018-08-22T20:00:30.283Z,98.00
2018-08-22T20:02:58.029Z,97.90
2018-08-22T20:05:25.833Z,98.20
2018-08-22T20:07:53.443Z,98.40
2018-08-22T20:12:53.344Z,99.10
2018-08-22T20:15:21.211Z,99.20
2018-08-22T20:17:51.124Z,99.40
2018-08-22T20:22:50.326Z,99.80
2018-08-22T20:25:17.958Z,99.80
2018-08-22T20:27:45.655Z,99.80
2018-08-22T20:30:16.654Z,99.50
2018-08-22T20:32:53.084Z,99.90
2018-08-22T20:35:26.299Z,99.70
2018-08-22T20:37:54.244Z,99.50
2018-08-22T20:40:21.999Z,99.40
2018-08-22T20:42:49.725Z,99.90
2018-08-22T20:45:23.098Z,99.90
2018-08-22T20:47:58.130Z,99.90
2018-08-22T20:50:25.855Z,99.90
2018-08-22T20:55:29.451Z,99.90
2018-08-22T20:57:57.680Z,99.90
2018-08-22T21:00:25.554Z,99.90
2018-08-22T21:02:54.464Z,99.90
2018-08-22T21:10:18.008Z,99.90
2018-08-22T21:12:45.664Z,99.90
2018-08-22T21:17:40.909Z,99.90
2018-08-22T21:20:14.478Z,99.90
2018-08-22T21:22:42.118Z,99.90
2018-08-22T21:25:09.884Z,99.90
2018-08-22T21:27:37.663Z,99.90
2018-08-22T21:30:05.354Z,99.90
2018-08-22T21:32:33.070Z,99.80
2018-08-22T21:35:04.103Z,99.70
2018-08-22T21:37:31.738Z,99.90
2018-08-22T21:39:59.417Z,99.90
2018-08-22T21:42:32.103Z,99.90
2018-08-22T21:44:59.764Z,99.90
2018-08-22T21:47:27.438Z,99.90
2018-08-22T21:49:55.103Z,99.90
2018-08-22T21:52:22.847Z,99.90
2018-08-22T21:54:50.587Z,99.90
2018-08-22T21:57:18.198Z,99.90
2018-08-22T21:59:49.983Z,99.90
2018-08-22T22:02:19.348Z,99.90
2018-08-22T22:04:47.348Z,99.90
2018-08-22T22:07:14.989Z,99.90
2018-08-22T22:09:42.773Z,99.90
2018-08-22T22:12:16.099Z,99.90
2018-08-22T22:17:11.902Z,99.90
2018-08-22T22:19:39.638Z,99.90
2018-08-22T22:22:07.314Z,99.90
2018-08-22T22:24:44.253Z,99.90
2018-08-22T22:27:12.244Z,99.90
2018-08-22T22:29:39.855Z,99.90
2018-08-22T22:32:07.540Z,99.90
2018-08-22T22:39:42.623Z,99.90
2018-08-22T22:42:22.101Z,99.90
2018-08-22T22:44:52.122Z,99.90
2018-08-22T22:47:25.254Z,99.90
2018-08-22T22:49:53.013Z,99.90
2018-08-22T22:52:34.144Z,99.90
2018-08-22T22:55:03.018Z,99.90
2018-08-22T22:57:31.937Z,99.90
2018-08-22T23:00:00.533Z,99.90
2018-08-22T23:02:28.478Z,99.90
2018-08-22T23:04:56.944Z,99.90
2018-08-22T23:10:01.228Z,99.90
2018-08-22T23:12:33.430Z,99.90
2018-08-22T23:15:01.025Z,99.90
2018-08-22T23:17:28.665Z,99.90
2018-08-22T23:20:38.868Z,99.90
2018-08-22T23:23:23.335Z,99.90
2018-08-22T23:25:51.018Z,99.90
2018-08-22T23:30:46.690Z,99.90
2018-08-22T23:33:14.315Z,99.90
2018-08-22T23:35:41.973Z,99.90
2018-08-22T23:38:16.409Z,99.90
2018-08-22T23:40:46.083Z,99.90
2018-08-22T23:43:13.690Z,99.90
2018-08-22T23:45:45.957Z,99.90
2018-08-22T23:50:54.460Z,99.90
2018-08-22T23:53:23.644Z,99.90
2018-08-22T23:56:02.240Z,99.90
2018-08-22T23:58:29.872Z,99.90
